Overview Statistics Trail Chart Weather Telemetry Raw packets
 

This is the latest recevied weather packets stored in our database for station/object SQ5AAG-2. If no packets are shown the sender has not sent any weather packets the latest 10 day(s).

<< 106 107 108 109 110 111 112 >>
Time Temp. Humidity Pressure Rain* Wind** Luminosity Snow
1787813188 17.78° C 67% 1009.5 hPa 0 mm - - -
1787813097 19.44° C 64% 1009.3 hPa 0 mm - - -
1787812887 17.78° C 67% 1009.6 hPa 0 mm - - -
1787812765 18.89° C 67% 1009.3 hPa 0 mm - - -
1787812588 17.22° C 67% 1009.4 hPa 0 mm - - -
1787812370 18.33° C 68% 1009.4 hPa 0 mm - - -
1787812284 17.22° C 67% 1009.5 hPa 0 mm - - -
1787812021 17.78° C 68% 1009.3 hPa 0 mm - - -
1787811984 17.22° C 67% 1009.5 hPa 0 mm - - -
1787811716 17.22° C 66% 1009.5 hPa 0 mm - - -
1787811684 17.22° C 66% 1009.5 hPa 0 mm - - -
1787811678 17.78° C 69% 1009.3 hPa 0 mm - - -
1787811383 17.22° C 66% 1009.4 hPa 0 mm - - -
1787811083 17.78° C 66% 1009.4 hPa 0 mm - - -
1787810861 16.67° C 71% 1009.1 hPa 0 mm - - -
1787810783 17.78° C 64% 1009.5 hPa 0 mm - - -
1787810547 18.33° C 63% 1009.4 hPa 0 mm - - -
1787810537 16.67° C 72% 1009.2 hPa 0 mm - - -
1787810501 16.67° C 72% 1009.2 hPa 0 mm - - -
1787810482 18.33° C 63% 1009.4 hPa 0 mm - - -
1787810182 19.44° C 62% 1009.4 hPa 0 mm - - -
1787810146 16.67° C 72% 1009.2 hPa 0 mm - - -
1787809884 19.44° C 63% 1009.3 hPa 0 mm - - -
1787809763 16.11° C 73% 1009.1 hPa 0 mm - - -
1787809581 19.44° C 64% 1009.3 hPa 0 mm - - -

* Rain latest hour (hover to see other rain measurements)
** Current wind speed in m/s (hover to see current wind gust speed)